createdAt,value
2023-05-01T00:00:23.240Z,50.852814
2023-05-01T00:01:23.264Z,50.852818
2023-05-01T00:02:23.363Z,50.852806
2023-05-01T00:03:23.375Z,50.852840
2023-05-01T00:04:23.293Z,50.852852
2023-05-01T00:05:23.208Z,50.852844
2023-05-01T00:06:23.278Z,50.852821
2023-05-01T00:07:23.206Z,50.852814
2023-05-01T00:08:23.195Z,50.852837
2023-05-01T00:09:23.242Z,50.852825
2023-05-01T00:10:23.179Z,50.852806
2023-05-01T00:11:23.217Z,50.852829
2023-05-01T00:12:23.175Z,50.852840
2023-05-01T00:13:23.191Z,50.852802
2023-05-01T00:14:23.183Z,50.852833
2023-05-01T00:15:23.179Z,50.852844
2023-05-01T00:16:23.225Z,50.852837
2023-05-01T00:17:23.188Z,50.852810
2023-05-01T00:18:23.151Z,50.852795
2023-05-01T00:19:23.146Z,50.852837
2023-05-01T00:20:23.134Z,50.852806
2023-05-01T00:21:23.138Z,50.852787
2023-05-01T00:22:23.114Z,50.852787
2023-05-01T00:23:23.187Z,50.852802
2023-05-01T00:24:23.120Z,50.852798
2023-05-01T00:25:23.119Z,50.852806
2023-05-01T00:26:23.130Z,50.852787
2023-05-01T00:27:23.113Z,50.852787
2023-05-01T00:28:23.157Z,50.852814
2023-05-01T00:29:23.101Z,50.852821
2023-05-01T00:30:23.111Z,50.852795
2023-05-01T00:31:23.123Z,50.852783
2023-05-01T00:32:23.086Z,50.852821
2023-05-01T00:33:23.093Z,50.852802
2023-05-01T00:34:23.076Z,50.852818
2023-05-01T00:35:23.107Z,50.852821
2023-05-01T00:36:23.058Z,50.852821
2023-05-01T00:37:23.075Z,50.852821
2023-05-01T00:38:23.044Z,50.852798
2023-05-01T00:39:23.101Z,50.852810
2023-05-01T00:40:23.031Z,50.852802
2023-05-01T00:41:23.055Z,50.852829
2023-05-01T00:42:23.018Z,50.852825
2023-05-01T00:43:23.029Z,50.852821
2023-05-01T00:44:23.020Z,50.852821
2023-05-01T00:45:23.043Z,50.852802
2023-05-01T00:46:23.006Z,50.852810
2023-05-01T00:47:23.085Z,50.852798
2023-05-01T00:48:23.007Z,50.852806
2023-05-01T00:49:22.986Z,50.852814
2023-05-01T00:50:23.028Z,50.852840
2023-05-01T00:51:22.990Z,50.852825
2023-05-01T00:52:22.953Z,50.852833
2023-05-01T00:53:22.980Z,50.852852
2023-05-01T00:54:22.953Z,50.852837
2023-05-01T00:55:22.996Z,50.852798
2023-05-01T00:56:22.951Z,50.852783
2023-05-01T00:57:22.979Z,50.852829
2023-05-01T00:58:22.939Z,50.852848
2023-05-01T00:59:22.938Z,50.852829
2023-05-01T01:00:22.942Z,50.852852
2023-05-01T01:01:23.040Z,50.852840
2023-05-01T01:02:22.954Z,50.852852
2023-05-01T01:03:22.910Z,50.852840
2023-05-01T01:04:22.968Z,50.852871
2023-05-01T01:05:22.950Z,50.852867
2023-05-01T01:06:23.000Z,50.852829
2023-05-01T01:07:22.894Z,50.852833
2023-05-01T01:08:22.879Z,50.852848
2023-05-01T01:09:22.892Z,50.852856
2023-05-01T01:10:22.897Z,50.852837
2023-05-01T01:11:22.900Z,50.852837
2023-05-01T01:12:22.899Z,50.852863
2023-05-01T01:13:22.868Z,50.852879
2023-05-01T01:14:22.844Z,50.852863
2023-05-01T01:15:22.847Z,50.852871
2023-05-01T01:16:22.950Z,50.852852
2023-05-01T01:17:22.867Z,50.852921
2023-05-01T01:18:22.825Z,50.852905
2023-05-01T01:19:22.826Z,50.852840
2023-05-01T01:20:22.801Z,50.852875
2023-05-01T01:21:22.851Z,50.852905
2023-05-01T01:22:22.801Z,50.852871
2023-05-01T01:23:22.817Z,50.852856
2023-05-01T01:24:22.802Z,50.852791
2023-05-01T01:25:22.805Z,50.852779
2023-05-01T01:26:22.769Z,50.852844
2023-05-01T01:27:22.803Z,50.852818
2023-05-01T01:28:22.779Z,50.852802
2023-05-01T01:29:22.783Z,50.852837
2023-05-01T01:30:22.748Z,50.852798
2023-05-01T01:31:22.820Z,50.852776
2023-05-01T01:32:22.803Z,50.852844
2023-05-01T01:33:22.744Z,50.852840
2023-05-01T01:34:22.749Z,50.852852
2023-05-01T01:35:22.758Z,50.852852
2023-05-01T01:36:22.768Z,50.852798
2023-05-01T01:37:22.728Z,50.852829
2023-05-01T01:38:23.146Z,50.852848
2023-05-01T01:39:23.164Z,50.852848
2023-05-01T01:40:22.745Z,50.852859
2023-05-01T01:41:22.721Z,50.852848
2023-05-01T01:42:22.725Z,50.852837
2023-05-01T01:43:22.704Z,50.852825
2023-05-01T01:44:22.703Z,50.852791
2023-05-01T01:45:22.685Z,50.852833
2023-05-01T01:46:22.892Z,50.852833
2023-05-01T01:47:22.729Z,50.852856
2023-05-01T01:48:22.678Z,50.852844
2023-05-01T01:49:22.680Z,50.852844
2023-05-01T01:50:22.651Z,50.852833
2023-05-01T01:51:22.664Z,50.852859
2023-05-01T01:52:22.638Z,50.852825
2023-05-01T01:53:22.653Z,50.852859
2023-05-01T01:54:22.656Z,50.852863
2023-05-01T01:55:22.636Z,50.852840
2023-05-01T01:56:22.690Z,50.852825
2023-05-01T01:57:22.632Z,50.852852
2023-05-01T01:58:22.597Z,50.852825
2023-05-01T01:59:22.637Z,50.852821
2023-05-01T02:00:22.641Z,50.852875
2023-05-01T02:01:22.654Z,50.852779
2023-05-01T02:02:22.644Z,50.852867
2023-05-01T02:03:22.693Z,50.852901
2023-05-01T02:04:22.598Z,50.852806
2023-05-01T02:05:22.614Z,50.852848
2023-05-01T02:06:22.595Z,50.852833
2023-05-01T02:07:22.584Z,50.852795
2023-05-01T02:08:22.564Z,50.852814
2023-05-01T02:09:22.608Z,50.852798
2023-05-01T02:10:22.580Z,50.852802
2023-05-01T02:11:22.562Z,50.852814
2023-05-01T02:12:22.558Z,50.852856
2023-05-01T02:13:22.549Z,50.852890
2023-05-01T02:14:22.531Z,50.852859
2023-05-01T02:15:22.543Z,50.852837
2023-05-01T02:16:22.586Z,50.852692
2023-05-01T02:17:22.582Z,50.852776
2023-05-01T02:18:22.507Z,50.852898
2023-05-01T02:19:22.537Z,50.852890
2023-05-01T02:20:22.506Z,50.852882
2023-05-01T02:21:22.495Z,50.852829
2023-05-01T02:22:22.504Z,50.852848
2023-05-01T02:23:22.489Z,50.852848
2023-05-01T02:24:22.472Z,50.852867
2023-05-01T02:25:22.497Z,50.852856
2023-05-01T02:26:22.507Z,50.852829
2023-05-01T02:27:22.460Z,50.852875
2023-05-01T02:28:22.453Z,50.852840
2023-05-01T02:29:22.453Z,50.852863
2023-05-01T02:30:22.446Z,50.852844
2023-05-01T02:31:22.505Z,50.852875
2023-05-01T02:32:22.493Z,50.852844
2023-05-01T02:33:22.429Z,50.852856
2023-05-01T02:34:22.480Z,50.852848
2023-05-01T02:35:22.421Z,50.852867
2023-05-01T02:36:22.408Z,50.852863
2023-05-01T02:37:22.471Z,50.852863
2023-05-01T02:38:22.423Z,50.852882
2023-05-01T02:39:22.435Z,50.852844
2023-05-01T02:40:22.394Z,50.852909
2023-05-01T02:41:22.438Z,50.852890
2023-05-01T02:42:22.482Z,50.852894
2023-05-01T02:43:22.412Z,50.852879
2023-05-01T02:44:22.409Z,50.852901
2023-05-01T02:45:22.369Z,50.852882
2023-05-01T02:46:22.389Z,50.852867
2023-05-01T02:47:22.434Z,50.852848
2023-05-01T02:48:22.353Z,50.852844
2023-05-01T02:49:22.372Z,50.852844
2023-05-01T02:50:22.331Z,50.852859
2023-05-01T02:51:22.348Z,50.852848
2023-05-01T02:52:22.318Z,50.852829
2023-05-01T02:53:22.337Z,50.852806
2023-05-01T02:54:22.330Z,50.852833
2023-05-01T02:55:22.339Z,50.852818
2023-05-01T02:56:22.318Z,50.852837
2023-05-01T02:57:22.320Z,50.852837
2023-05-01T02:58:22.325Z,50.852840
2023-05-01T02:59:22.312Z,50.852818
2023-05-01T03:00:22.272Z,50.852867
2023-05-01T03:01:22.357Z,50.852844
2023-05-01T03:02:22.290Z,50.852844
2023-05-01T03:03:22.330Z,50.852821
2023-05-01T03:04:22.343Z,50.852821
2023-05-01T03:05:22.274Z,50.852848
2023-05-01T03:06:22.287Z,50.852852
2023-05-01T03:07:22.289Z,50.852837
2023-05-01T03:08:22.232Z,50.852821
2023-05-01T03:09:22.254Z,50.852825
2023-05-01T03:10:22.254Z,50.852833
2023-05-01T03:11:22.242Z,50.852848
2023-05-01T03:12:22.205Z,50.852833
2023-05-01T03:13:22.227Z,50.852848
2023-05-01T03:14:22.201Z,50.852863
2023-05-01T03:15:22.210Z,50.852840
2023-05-01T03:16:22.257Z,50.852829
2023-05-01T03:17:22.242Z,50.852825
2023-05-01T03:18:22.176Z,50.852829
2023-05-01T03:19:22.197Z,50.852810
2023-05-01T03:20:22.185Z,50.852791
2023-05-01T03:21:22.177Z,50.852829
2023-05-01T03:22:22.157Z,50.852810
2023-05-01T03:23:22.167Z,50.852814
2023-05-01T03:24:22.157Z,50.852795
2023-05-01T03:25:22.152Z,50.852814
2023-05-01T03:26:22.156Z,50.852825
2023-05-01T03:27:22.145Z,50.852810
2023-05-01T03:28:22.123Z,50.852821
2023-05-01T03:29:22.116Z,50.852825
2023-05-01T03:30:22.137Z,50.852833
2023-05-01T03:31:22.126Z,50.852810
2023-05-01T03:32:22.157Z,50.852829
2023-05-01T03:33:22.155Z,50.852818
2023-05-01T03:34:22.085Z,50.852825
2023-05-01T03:35:22.180Z,50.852829
2023-05-01T03:36:22.066Z,50.852814
2023-05-01T03:37:22.096Z,50.852821
2023-05-01T03:38:22.076Z,50.852825
2023-05-01T03:39:22.074Z,50.852818
2023-05-01T03:40:22.053Z,50.852818
2023-05-01T03:41:22.075Z,50.852844
2023-05-01T03:42:22.054Z,50.852833
2023-05-01T03:43:22.045Z,50.852821
2023-05-01T03:44:22.026Z,50.852814
2023-05-01T03:45:22.052Z,50.852821
2023-05-01T03:46:22.166Z,50.852798
2023-05-01T03:47:22.092Z,50.852810
2023-05-01T03:48:22.017Z,50.852795
2023-05-01T03:49:22.015Z,50.852837
2023-05-01T03:50:21.995Z,50.852856
2023-05-01T03:51:22.046Z,50.852871
2023-05-01T03:52:21.978Z,50.852821
2023-05-01T03:53:22.006Z,50.852867
2023-05-01T03:54:21.994Z,50.852833
2023-05-01T03:55:21.999Z,50.852840
2023-05-01T03:56:21.985Z,50.852840
2023-05-01T03:57:21.969Z,50.852867
2023-05-01T03:58:21.950Z,50.852871
2023-05-01T03:59:22.012Z,50.852894
2023-05-01T04:00:21.951Z,50.852852
2023-05-01T04:01:21.956Z,50.852890
2023-05-01T04:02:22.092Z,50.852852
2023-05-01T04:03:22.023Z,50.852913
2023-05-01T04:04:21.972Z,50.852886
2023-05-01T04:05:21.939Z,50.852879
2023-05-01T04:06:21.933Z,50.852890
2023-05-01T04:07:21.956Z,50.852825
2023-05-01T04:08:21.902Z,50.852795
2023-05-01T04:09:21.931Z,50.852810
2023-05-01T04:10:21.932Z,50.852810
2023-05-01T04:11:21.924Z,50.852833
2023-05-01T04:12:21.896Z,50.852829
2023-05-01T04:13:21.870Z,50.852844
2023-05-01T04:14:21.890Z,50.852848
2023-05-01T04:15:21.891Z,50.852856
2023-05-01T04:16:21.894Z,50.852829
2023-05-01T04:17:21.859Z,50.852821
2023-05-01T04:18:21.968Z,50.852837
2023-05-01T04:19:21.868Z,50.852837
2023-05-01T04:20:21.877Z,50.852821
2023-05-01T04:21:21.850Z,50.852818
2023-05-01T04:22:21.831Z,50.852844
2023-05-01T04:23:23.185Z,50.852852
2023-05-01T04:24:21.828Z,50.852844
2023-05-01T04:25:21.839Z,50.852829
2023-05-01T04:26:21.812Z,50.852840
2023-05-01T04:27:21.832Z,50.852829
2023-05-01T04:28:21.838Z,50.852810
2023-05-01T04:29:21.813Z,50.852844
2023-05-01T04:30:21.804Z,50.852810
2023-05-01T04:31:21.823Z,50.852791
2023-05-01T04:32:21.772Z,50.852848
2023-05-01T04:33:21.801Z,50.852856
2023-05-01T04:34:21.782Z,50.852844
2023-05-01T04:35:21.750Z,50.852818
2023-05-01T04:36:21.791Z,50.852806
2023-05-01T04:37:21.749Z,50.852818
2023-05-01T04:38:21.718Z,50.852818
2023-05-01T04:39:21.791Z,50.852821
2023-05-01T04:40:21.735Z,50.852802
2023-05-01T04:41:21.739Z,50.852818
2023-05-01T04:42:21.723Z,50.852810
2023-05-01T04:43:21.706Z,50.852783
2023-05-01T04:44:21.718Z,50.852737
2023-05-01T04:45:21.731Z,50.852772
2023-05-01T04:46:21.722Z,50.852837
2023-05-01T04:47:21.709Z,50.852844
2023-05-01T04:48:21.682Z,50.852844
2023-05-01T04:49:21.681Z,50.852806
2023-05-01T04:50:21.682Z,50.852833
2023-05-01T04:51:21.718Z,50.852844
2023-05-01T04:52:21.659Z,50.852852
2023-05-01T04:53:21.661Z,50.852863
2023-05-01T04:54:21.644Z,50.852848
2023-05-01T04:55:21.677Z,50.852848
2023-05-01T04:56:21.635Z,50.852810
2023-05-01T04:57:21.694Z,50.852829
2023-05-01T04:58:21.615Z,50.852844
2023-05-01T04:59:21.650Z,50.852844
2023-05-01T05:00:21.633Z,50.852844
2023-05-01T05:01:21.650Z,50.852802
2023-05-01T05:02:21.668Z,50.852772
2023-05-01T05:03:21.691Z,50.852787
2023-05-01T05:04:21.614Z,50.852764
2023-05-01T05:05:21.605Z,50.852776
2023-05-01T05:06:21.666Z,50.852779
2023-05-01T05:07:21.661Z,50.852787
2023-05-01T05:08:21.619Z,50.852772
2023-05-01T05:09:21.588Z,50.852783
2023-05-01T05:10:21.576Z,50.852787
2023-05-01T05:11:21.631Z,50.852779
2023-05-01T05:12:21.583Z,50.852772
2023-05-01T05:13:21.556Z,50.852757
2023-05-01T05:14:21.531Z,50.852783
2023-05-01T05:15:21.711Z,50.852776
2023-05-01T05:16:21.590Z,50.852779
2023-05-01T05:17:21.573Z,50.852791
2023-05-01T05:18:21.638Z,50.852779
2023-05-01T05:19:21.532Z,50.852798
2023-05-01T05:20:21.512Z,50.852791
2023-05-01T05:21:21.548Z,50.852783
2023-05-01T05:22:21.486Z,50.852772
2023-05-01T05:23:21.530Z,50.852772
2023-05-01T05:24:21.481Z,50.852764
2023-05-01T05:25:21.496Z,50.852768
2023-05-01T05:26:21.504Z,50.852783
2023-05-01T05:27:21.525Z,50.852768
2023-05-01T05:28:21.496Z,50.852779
2023-05-01T05:29:21.464Z,50.852760
2023-05-01T05:30:21.448Z,50.852772
2023-05-01T05:31:21.509Z,50.852753
2023-05-01T05:32:21.515Z,50.852760
2023-05-01T05:33:21.488Z,50.852787
2023-05-01T05:34:21.425Z,50.852798
2023-05-01T05:35:21.458Z,50.852772
2023-05-01T05:36:21.433Z,50.852779
2023-05-01T05:37:21.433Z,50.852776
2023-05-01T05:38:21.414Z,50.852791
2023-05-01T05:39:21.422Z,50.852734
2023-05-01T05:40:21.388Z,50.852753
2023-05-01T05:41:21.401Z,50.852757
2023-05-01T05:42:21.411Z,50.852757
2023-05-01T05:43:21.458Z,50.852768
2023-05-01T05:44:21.389Z,50.852791
2023-05-01T05:45:21.389Z,50.852753
2023-05-01T05:46:21.430Z,50.852745
2023-05-01T05:47:21.370Z,50.852726
2023-05-01T05:48:21.385Z,50.852718
2023-05-01T05:49:21.364Z,50.852722
2023-05-01T05:50:21.357Z,50.852730
2023-05-01T05:51:21.340Z,50.852734
2023-05-01T05:52:21.334Z,50.852730
2023-05-01T05:53:22.971Z,50.852753
2023-05-01T05:54:21.298Z,50.852757
2023-05-01T05:55:21.330Z,50.852722
2023-05-01T05:56:21.331Z,50.852745
2023-05-01T05:57:21.298Z,50.852711
2023-05-01T05:58:21.311Z,50.852699
2023-05-01T05:59:21.295Z,50.852715
2023-05-01T06:00:21.275Z,50.852722
2023-05-01T06:01:21.333Z,50.852715
2023-05-01T06:02:21.350Z,50.852722
2023-05-01T06:03:21.482Z,50.852722
2023-05-01T06:04:21.283Z,50.852737
2023-05-01T06:05:21.294Z,50.852734
2023-05-01T06:06:21.281Z,50.852730
2023-05-01T06:07:21.263Z,50.852730
2023-05-01T06:08:21.224Z,50.852734
2023-05-01T06:09:21.234Z,50.852715
2023-05-01T06:10:21.221Z,50.852726
2023-05-01T06:11:21.230Z,50.852753
2023-05-01T06:12:21.238Z,50.852730
2023-05-01T06:13:21.209Z,50.852741
2023-05-01T06:14:21.187Z,50.852753
2023-05-01T06:15:21.217Z,50.852718
2023-05-01T06:16:21.227Z,50.852730
2023-05-01T06:17:21.223Z,50.852760
2023-05-01T06:18:21.247Z,50.852764
2023-05-01T06:19:21.175Z,50.852745
2023-05-01T06:20:21.141Z,50.852779
2023-05-01T06:21:21.204Z,50.852783
2023-05-01T06:22:21.145Z,50.852772
2023-05-01T06:23:21.159Z,50.852776
2023-05-01T06:24:21.132Z,50.852741
2023-05-01T06:25:21.138Z,50.852745
2023-05-01T06:26:21.149Z,50.852757
2023-05-01T06:27:21.143Z,50.852783
2023-05-01T06:28:21.111Z,50.852772
2023-05-01T06:29:21.123Z,50.852783
2023-05-01T06:30:21.176Z,50.852783
2023-05-01T06:31:21.147Z,50.852776
2023-05-01T06:32:21.116Z,50.852779
2023-05-01T06:33:21.119Z,50.852741
2023-05-01T06:34:21.087Z,50.852749
2023-05-01T06:35:21.105Z,50.852783
2023-05-01T06:36:21.051Z,50.852737
2023-05-01T06:37:21.091Z,50.852757
2023-05-01T06:38:21.037Z,50.852726
2023-05-01T06:39:21.093Z,50.852730
2023-05-01T06:40:21.073Z,50.852764
2023-05-01T06:41:21.055Z,50.852760
2023-05-01T06:42:21.025Z,50.852768
2023-05-01T06:43:21.028Z,50.852783
2023-05-01T06:44:21.012Z,50.852768
2023-05-01T06:45:21.132Z,50.852772
2023-05-01T06:46:21.032Z,50.852764
2023-05-01T06:47:21.011Z,50.852764
2023-05-01T06:48:20.983Z,50.852791
2023-05-01T06:49:20.996Z,50.852783
2023-05-01T06:50:20.958Z,50.852798
2023-05-01T06:51:21.771Z,50.852810
2023-05-01T06:52:20.974Z,50.852779
2023-05-01T06:53:20.958Z,50.852764
2023-05-01T06:54:20.930Z,50.852798
2023-05-01T06:55:20.962Z,50.852798
2023-05-01T06:56:20.946Z,50.852795
2023-05-01T06:57:20.934Z,50.852806
2023-05-01T06:58:23.814Z,50.852818
2023-05-01T06:59:21.008Z,50.852783
2023-05-01T07:00:20.885Z,50.852810
2023-05-01T07:01:21.049Z,50.852779
2023-05-01T07:02:21.032Z,50.852757
2023-05-01T07:03:20.993Z,50.852787
2023-05-01T07:04:20.870Z,50.852825
2023-05-01T07:05:20.902Z,50.852837
2023-05-01T07:06:20.893Z,50.852825
2023-05-01T07:07:20.887Z,50.852821
2023-05-01T07:08:20.839Z,50.852795
2023-05-01T07:09:20.842Z,50.852787
2023-05-01T07:10:20.834Z,50.852810
2023-05-01T07:11:20.850Z,50.852802
2023-05-01T07:12:20.825Z,50.852818
2023-05-01T07:13:20.833Z,50.852772
2023-05-01T07:14:20.783Z,50.852760
2023-05-01T07:15:20.816Z,50.852779
2023-05-01T07:16:20.844Z,50.852772
2023-05-01T07:17:20.838Z,50.852745
2023-05-01T07:18:20.812Z,50.852798
2023-05-01T07:19:20.771Z,50.852787
2023-05-01T07:20:20.775Z,50.852787
2023-05-01T07:21:20.772Z,50.852760
2023-05-01T07:22:20.795Z,50.852810
2023-05-01T07:23:20.757Z,50.852764
2023-05-01T07:24:20.757Z,50.852806
2023-05-01T07:25:20.744Z,50.852795
2023-05-01T07:26:20.715Z,50.852795
2023-05-01T07:27:20.735Z,50.852764
2023-05-01T07:28:20.689Z,50.852749
2023-05-01T07:29:20.741Z,50.852791
2023-05-01T07:30:20.678Z,50.852798
2023-05-01T07:31:20.742Z,50.852760
2023-05-01T07:32:20.735Z,50.852783
2023-05-01T07:33:20.682Z,50.852768
2023-05-01T07:34:20.693Z,50.852760
2023-05-01T07:35:20.666Z,50.852787
2023-05-01T07:36:20.659Z,50.852760
2023-05-01T07:37:20.642Z,50.852779
2023-05-01T07:38:20.614Z,50.852791
2023-05-01T07:39:20.630Z,50.852753
2023-05-01T07:40:20.610Z,50.852757
2023-05-01T07:41:20.618Z,50.852776
2023-05-01T07:42:20.589Z,50.852711
2023-05-01T07:43:20.578Z,50.852798
2023-05-01T07:44:20.566Z,50.852795
2023-05-01T07:45:20.586Z,50.852848
2023-05-01T07:46:20.603Z,50.852810
2023-05-01T07:47:20.554Z,50.852787
2023-05-01T07:48:20.551Z,50.852787
2023-05-01T07:49:20.534Z,50.852798
2023-05-01T07:50:20.528Z,50.852760
2023-05-01T07:51:20.510Z,50.852776
2023-05-01T07:52:20.506Z,50.852779
2023-05-01T07:53:20.502Z,50.852795
2023-05-01T07:54:20.489Z,50.852776
2023-05-01T07:55:20.495Z,50.852795
2023-05-01T07:56:20.453Z,50.852798
2023-05-01T07:57:20.456Z,50.852779
2023-05-01T07:58:20.540Z,50.852787
2023-05-01T07:59:20.457Z,50.852787
2023-05-01T08:00:20.441Z,50.852806
2023-05-01T08:01:20.451Z,50.852795
2023-05-01T08:02:20.455Z,50.852779
2023-05-01T08:03:20.627Z,50.852791
2023-05-01T08:04:20.469Z,50.852818
2023-05-01T08:05:20.401Z,50.852783
2023-05-01T08:06:20.432Z,50.852814
2023-05-01T08:07:20.380Z,50.852825
2023-05-01T08:08:20.378Z,50.852798
2023-05-01T08:09:20.376Z,50.852810
2023-05-01T08:10:20.368Z,50.852772
2023-05-01T08:11:20.381Z,50.852806
2023-05-01T08:12:20.355Z,50.852818
2023-05-01T08:13:20.342Z,50.852791
2023-05-01T08:14:20.319Z,50.852791
2023-05-01T08:15:20.331Z,50.852806
2023-05-01T08:16:22.033Z,50.852818
2023-05-01T08:17:20.382Z,50.852802
2023-05-01T08:18:20.407Z,50.852798
2023-05-01T08:19:20.281Z,50.852798
2023-05-01T08:20:20.260Z,50.852779
2023-05-01T08:21:20.277Z,50.852772
2023-05-01T08:22:20.265Z,50.852795
2023-05-01T08:23:20.258Z,50.852798
2023-05-01T08:24:20.272Z,50.852802
2023-05-01T08:25:20.235Z,50.852795
2023-05-01T08:26:22.331Z,50.852802
2023-05-01T08:27:20.222Z,50.852772
2023-05-01T08:28:20.246Z,50.852814
2023-05-01T08:29:20.228Z,50.852821
2023-05-01T08:30:20.178Z,50.852829
2023-05-01T08:31:20.219Z,50.852783
2023-05-01T08:32:20.169Z,50.852779
2023-05-01T08:33:20.167Z,50.852837
2023-05-01T08:34:20.170Z,50.852837
2023-05-01T08:35:20.152Z,50.852806
2023-05-01T08:36:21.290Z,50.852802
2023-05-01T08:37:20.126Z,50.852787
2023-05-01T08:38:20.121Z,50.852764
2023-05-01T08:39:20.281Z,50.852787
2023-05-01T08:40:20.110Z,50.852787
2023-05-01T08:41:20.102Z,50.852791
2023-05-01T08:42:20.094Z,50.852798
2023-05-01T08:43:20.116Z,50.852795
2023-05-01T08:44:20.076Z,50.852783
2023-05-01T08:45:20.102Z,50.852779
2023-05-01T08:46:20.067Z,50.852871
2023-05-01T08:47:20.183Z,50.852810
2023-05-01T08:48:20.039Z,50.852833
2023-05-01T08:49:20.072Z,50.852848
2023-05-01T08:50:20.039Z,50.852848
2023-05-01T08:51:21.254Z,50.852867
2023-05-01T08:52:20.031Z,50.852894
2023-05-01T08:53:19.998Z,50.852932
2023-05-01T08:54:19.986Z,50.852940
2023-05-01T08:55:20.003Z,50.852898
2023-05-01T08:56:19.998Z,50.852894
2023-05-01T08:57:20.019Z,50.852886
2023-05-01T08:58:19.967Z,50.852852
2023-05-01T08:59:20.006Z,50.852871
2023-05-01T09:00:20.090Z,50.852859
2023-05-01T09:01:20.039Z,50.852844
2023-05-01T09:02:19.962Z,50.852810
2023-05-01T09:03:20.058Z,50.852760
2023-05-01T09:04:20.036Z,50.852848
2023-05-01T09:05:19.975Z,50.852859
2023-05-01T09:06:19.910Z,50.852863
2023-05-01T09:07:19.923Z,50.852852
2023-05-01T09:08:19.874Z,50.852844
2023-05-01T09:09:19.907Z,50.852936
2023-05-01T09:10:19.900Z,50.852901
2023-05-01T09:11:19.885Z,50.852787
2023-05-01T09:12:19.851Z,50.852856
2023-05-01T09:13:19.891Z,50.852821
2023-05-01T09:14:19.859Z,50.852829
2023-05-01T09:15:19.840Z,50.852818
2023-05-01T09:16:19.968Z,50.852829
2023-05-01T09:17:19.919Z,50.852833
2023-05-01T09:18:19.865Z,50.852810
2023-05-01T09:19:19.846Z,50.852829
2023-05-01T09:20:19.859Z,50.852848
2023-05-01T09:21:19.835Z,50.852802
2023-05-01T09:22:19.798Z,50.852802
2023-05-01T09:23:19.793Z,50.852798
2023-05-01T09:24:19.766Z,50.852783
2023-05-01T09:25:19.795Z,50.852787
2023-05-01T09:26:19.755Z,50.852757
2023-05-01T09:27:19.774Z,50.852779
2023-05-01T09:28:19.773Z,50.852787
2023-05-01T09:29:19.757Z,50.852791
2023-05-01T09:30:19.807Z,50.852776
2023-05-01T09:31:19.852Z,50.852776
2023-05-01T09:32:19.845Z,50.852802
2023-05-01T09:33:19.807Z,50.852814
2023-05-01T09:34:19.722Z,50.852795
2023-05-01T09:35:19.717Z,50.852814
2023-05-01T09:36:19.707Z,50.852814
2023-05-01T09:37:19.701Z,50.852814
2023-05-01T09:38:19.690Z,50.852833
2023-05-01T09:39:19.711Z,50.852833
2023-05-01T09:40:19.728Z,50.852806
2023-05-01T09:41:19.698Z,50.852818
2023-05-01T09:42:19.648Z,50.852837
2023-05-01T09:43:19.656Z,50.852863
2023-05-01T09:44:19.644Z,50.852825
2023-05-01T09:45:19.681Z,50.852814
2023-05-01T09:46:19.666Z,50.852818
2023-05-01T09:47:19.619Z,50.852837
2023-05-01T09:48:19.618Z,50.852787
2023-05-01T09:49:19.650Z,50.852779
2023-05-01T09:50:19.592Z,50.852814
2023-05-01T09:51:19.608Z,50.852810
2023-05-01T09:52:19.570Z,50.852814
2023-05-01T09:53:19.593Z,50.852829
2023-05-01T09:54:19.580Z,50.852791
2023-05-01T09:55:19.604Z,50.852818
2023-05-01T09:56:19.545Z,50.852814
2023-05-01T09:57:19.557Z,50.852814
2023-05-01T09:58:19.532Z,50.852852
2023-05-01T09:59:19.574Z,50.852848
2023-05-01T10:00:19.514Z,50.852821
2023-05-01T10:01:19.706Z,50.852829
2023-05-01T10:02:19.647Z,50.852829
2023-05-01T10:03:19.622Z,50.852818
2023-05-01T10:04:19.504Z,50.852833
2023-05-01T10:05:19.504Z,50.852779
2023-05-01T10:06:19.630Z,50.852798
2023-05-01T10:07:19.520Z,50.852802
2023-05-01T10:08:19.492Z,50.852821
2023-05-01T10:09:19.477Z,50.852833
2023-05-01T10:10:19.455Z,50.852810
2023-05-01T10:11:19.506Z,50.852844
2023-05-01T10:12:19.454Z,50.852795
2023-05-01T10:13:19.483Z,50.852848
2023-05-01T10:14:19.463Z,50.852818
2023-05-01T10:15:25.651Z,50.852787
2023-05-01T10:16:20.434Z,50.852783
2023-05-01T10:17:19.453Z,50.852802
2023-05-01T10:18:19.475Z,50.852848
2023-05-01T10:19:19.423Z,50.852814
2023-05-01T10:20:19.381Z,50.852768
2023-05-01T10:21:19.414Z,50.852833
2023-05-01T10:22:19.376Z,50.852791
2023-05-01T10:23:19.430Z,50.852821
2023-05-01T10:24:19.377Z,50.852825
2023-05-01T10:25:19.357Z,50.852768
2023-05-01T10:26:19.365Z,50.852833
2023-05-01T10:27:19.374Z,50.852810
2023-05-01T10:28:19.343Z,50.852825
2023-05-01T10:29:19.361Z,50.852802
2023-05-01T10:30:19.334Z,50.852806
2023-05-01T10:31:19.388Z,50.852783
2023-05-01T10:32:19.334Z,50.852802
2023-05-01T10:33:19.386Z,50.852760
2023-05-01T10:34:19.343Z,50.852776
2023-05-01T10:35:19.327Z,50.852802
2023-05-01T10:36:19.285Z,50.852722
2023-05-01T10:37:19.283Z,50.852806
2023-05-01T10:38:19.249Z,50.852707
2023-05-01T10:39:19.279Z,50.852783
2023-05-01T10:40:19.246Z,50.852814
2023-05-01T10:41:19.257Z,50.852692
2023-05-01T10:42:19.225Z,50.852829
2023-05-01T10:43:19.241Z,50.852867
2023-05-01T10:44:19.255Z,50.852886
2023-05-01T10:45:19.241Z,50.852890
2023-05-01T10:46:19.339Z,50.852772
2023-05-01T10:47:19.265Z,50.852776
2023-05-01T10:48:19.209Z,50.852814
2023-05-01T10:49:19.220Z,50.852810
2023-05-01T10:50:19.192Z,50.852802
2023-05-01T10:51:19.192Z,50.852806
2023-05-01T10:52:19.161Z,50.852825
2023-05-01T10:53:19.187Z,50.852821
2023-05-01T10:54:19.138Z,50.852791
2023-05-01T10:55:19.182Z,50.852776
2023-05-01T10:56:19.146Z,50.852787
2023-05-01T10:57:19.143Z,50.852802
2023-05-01T10:58:19.108Z,50.852814
2023-05-01T10:59:19.135Z,50.852814
2023-05-01T11:00:19.124Z,50.852814
2023-05-01T11:01:19.189Z,50.852806
2023-05-01T11:02:19.289Z,50.852791
2023-05-01T11:03:19.111Z,50.852798
2023-05-01T11:04:19.070Z,50.852795
2023-05-01T11:05:28.919Z,50.852825
2023-05-01T11:06:20.230Z,50.852791
2023-05-01T11:07:19.375Z,50.852791
2023-05-01T11:08:19.099Z,50.852795
2023-05-01T11:09:19.057Z,50.852806
2023-05-01T11:10:19.041Z,50.852848
2023-05-01T11:11:19.063Z,50.852844
2023-05-01T11:12:19.096Z,50.852802
2023-05-01T11:13:19.060Z,50.852791
2023-05-01T11:14:19.006Z,50.852810
2023-05-01T11:15:19.068Z,50.852821
2023-05-01T11:16:19.134Z,50.852806
2023-05-01T11:17:19.094Z,50.852814
2023-05-01T11:18:18.999Z,50.852791
2023-05-01T11:19:18.997Z,50.852798
2023-05-01T11:20:18.981Z,50.852776
2023-05-01T11:21:18.996Z,50.852802
2023-05-01T11:22:18.958Z,50.852795
2023-05-01T11:23:19.004Z,50.852779
2023-05-01T11:24:18.968Z,50.852787